Flugplatz Nordhorn-Lingen

EDWN · State of Lower Saxony, Germany

October 3, 2022

Time Code Weather Temp. Visibility Ceiling Wind METAR/SPECI
23:20
V
9 °C 9 km - Var Var 1 kt METAR EDDG 032120Z AUTO VRB01KT 9000 FEW036 09/09 Q1024 TEMPO 2000 BCFG
22:50
V
9 °C 10 km+ - 150° 150° 2 kt METAR EDDG 032050Z AUTO 15002KT CAVOK 09/09 Q1024 NOSIG
22:20
V
9 °C 10 km+ - Var Var 1 kt METAR EDDG 032020Z AUTO VRB01KT CAVOK 09/09 Q1025 NOSIG
21:50
V
9 °C 10 km+ - 130° 130° 1 kt METAR EDDG 031950Z AUTO 13001KT CAVOK 09/09 Q1025 NOSIG
21:20
V
9 °C 10 km+ - Var Var 1 kt METAR EDDG 031920Z AUTO VRB01KT CAVOK 09/09 Q1025 NOSIG
20:50
V
10 °C 10 km+ - 130° 130° 1 kt METAR EDDG 031850Z AUTO 13001KT CAVOK 10/10 Q1025 NOSIG
20:20
V
11 °C 10 km+ - Var Var 1 kt METAR EDDG 031820Z AUTO VRB01KT CAVOK 11/10 Q1025 NOSIG
19:50
V
11 °C 10 km+ - 170° 170° 2 kt METAR EDDG 031750Z AUTO 17002KT CAVOK 11/10 Q1025 NOSIG
19:20
V
12 °C 10 km+ - Var Var 2 kt METAR EDDG 031720Z AUTO VRB02KT CAVOK 12/10 Q1025 NOSIG
18:50
V
13 °C 10 km+ - Var Var 2 kt METAR EDDG 031650Z AUTO VRB02KT CAVOK 13/11 Q1025 NOSIG
18:20
V
16 °C 10 km+ - 220° 220° 3 kt METAR EDDG 031620Z AUTO 22003KT 170V250 CAVOK 16/10 Q1025 NOSIG
17:50
V
16 °C 10 km+ - 230° 230° 4 kt METAR EDDG 031550Z AUTO 23004KT 200V260 9999 FEW043 16/09 Q1025 NOSIG
17:20
V
16 °C 10 km+ 4,400 ft 250° 250° 5 kt METAR EDDG 031520Z AUTO 25005KT 210V290 9999 BKN044 16/09 Q1026 NOSIG
16:50
V
16 °C 10 km+ 4,400 ft 270° 270° 4 kt METAR EDDG 031450Z AUTO 27004KT 9999 SCT033 BKN044 16/09 Q1026 NOSIG
16:20
V
16 °C 10 km+ 4,100 ft 260° 260° 5 kt METAR EDDG 031420Z AUTO 26005KT 230V290 9999 SCT033 BKN041 16/09 Q1026 NOSIG
15:50
V
16 °C 10 km+ 4,000 ft 260° 260° 6 kt METAR EDDG 031350Z AUTO 26006KT 230V300 9999 SCT032 BKN040 16/09 Q1026 NOSIG
15:20
V
16 °C 10 km+ 3,600 ft 290° 290° 6 kt METAR EDDG 031320Z AUTO 29006KT 250V320 9999 BKN036 16/09 Q1026 NOSIG
14:50
V
16 °C 10 km+ 3,800 ft 290° 290° 4 kt METAR EDDG 031250Z AUTO 29004KT 200V010 9999 SCT032 BKN038 16/09 Q1026 NOSIG
14:20
V
17 °C 10 km+ - 280° 280° 5 kt METAR EDDG 031220Z AUTO 28005KT 230V340 9999 FEW037 17/10 Q1026 NOSIG
13:50
V
16 °C 10 km+ - 290° 290° 4 kt METAR EDDG 031150Z AUTO 29004KT 260V330 9999 FEW027 SCT036 16/09 Q1026 NOSIG
13:20
V
15 °C 10 km+ 3,500 ft 300° 300° 5 kt METAR EDDG 031120Z AUTO 30005KT 270V340 9999 FEW026 BKN035 15/09 Q1026 NOSIG
12:50
V
15 °C 10 km+ - 280° 280° 6 kt METAR EDDG 031050Z AUTO 28006KT 240V310 9999 FEW021 SCT025 15/09 Q1027 NOSIG
12:20
V
16 °C 10 km+ - 270° 270° 6 kt METAR EDDG 031020Z AUTO 27006KT 220V320 9999 FEW019 SCT024 16/10 Q1027 NOSIG
11:50
V
15 °C 10 km+ - 290° 290° 5 kt METAR EDDG 030950Z AUTO 29005KT 240V360 9999 FEW016 15/10 Q1027 NOSIG
11:20
V
15 °C 10 km+ - 280° 280° 4 kt METAR EDDG 030920Z AUTO 28004KT 190V350 9999 FEW013 15/11 Q1027 NOSIG
10:50
V
14 °C 10 km+ - 240° 240° 5 kt METAR EDDG 030850Z AUTO 24005KT 210V290 CAVOK 14/11 Q1027 NOSIG
10:20
V
12 °C 10 km+ - 250° 250° 5 kt METAR EDDG 030820Z AUTO 25005KT CAVOK 12/10 Q1027 NOSIG
09:50
V
11 °C 10 km+ - 250° 250° 5 kt METAR EDDG 030750Z AUTO 25005KT 230V300 CAVOK 11/10 Q1026 NOSIG
09:20
V
10 °C 10 km+ - Var Var 2 kt METAR EDDG 030720Z AUTO VRB02KT CAVOK 10/09 Q1026 NOSIG
08:50
V
8 °C 8 km - 190° 190° 1 kt METAR EDDG 030650Z AUTO 19001KT 8000 NCD 08/08 Q1026 NOSIG
08:20
L
6 °C 450 m - 090° 090° 1 kt METAR EDDG 030620Z AUTO 09001KT 1700 0450 R25/1200U BCFG NCD 06/06 Q1026 BECMG 7000
07:50
L
7 °C 400 m - Var Var 1 kt METAR EDDG 030550Z AUTO VRB01KT 0400 R25/1100D FG NCD 07/06 Q1026 BECMG 1500 BR
07:20
L
7 °C 500 m - Var Var 1 kt METAR EDDG 030520Z AUTO VRB01KT 0500 R25/0650N FG NCD 07/07 Q1025 TEMPO 0300
06:50
L
7 °C 650 m - Var Var 2 kt METAR EDDG 030450Z AUTO VRB02KT 0700 0650 R25/1200D FG NCD 07/07 Q1025 TEMPO 0400 FG
06:20
L
7 °C 500 m - Var Var 2 kt METAR EDDG 030420Z AUTO VRB02KT 0600 0500 R25/0700N FG NCD 07/07 Q1025 TEMPO 2000 BR
05:50
L
8 °C 450 m - 230° 230° 2 kt METAR EDDG 030350Z AUTO 23002KT 0500 0450 R25/0700U FG NCD 08/08 Q1025 TEMPO 4000 BCFG
05:20
V
8 °C 10 km+ - 240° 240° 3 kt METAR EDDG 030320Z AUTO 24003KT 9999 R25/1400U NCD 08/08 Q1025 TEMPO 1200 BCFG
04:50
L
8 °C 800 m - 260° 260° 3 kt METAR EDDG 030250Z AUTO 26003KT 1100 0800 R25/1500D BCFG NCD 08/07 Q1025 TEMPO 0500 FG
04:20
V
8 °C 10 km+ - 270° 270° 3 kt METAR EDDG 030220Z AUTO 27003KT CAVOK 08/08 Q1025 NOSIG
03:50
V
8 °C 10 km+ - 270° 270° 4 kt METAR EDDG 030150Z AUTO 27004KT CAVOK 08/08 Q1024 NOSIG
03:20
V
8 °C 10 km+ - 260° 260° 4 kt METAR EDDG 030120Z AUTO 26004KT CAVOK 08/08 Q1024 NOSIG
02:50
V
8 °C 10 km+ - 260° 260° 3 kt METAR EDDG 030050Z AUTO 26003KT CAVOK 08/08 Q1024 NOSIG
02:20
V
8 °C 10 km+ - 260° 260° 4 kt METAR EDDG 030020Z AUTO 26004KT CAVOK 08/08 Q1024 NOSIG
01:50
V
9 °C 10 km+ - 260° 260° 4 kt METAR EDDG 022350Z AUTO 26004KT CAVOK 09/08 Q1024 NOSIG
01:20
V
9 °C 10 km+ - 260° 260° 4 kt METAR EDDG 022320Z AUTO 26004KT CAVOK 09/08 Q1024 NOSIG
00:50
V
9 °C 10 km+ - 270° 270° 5 kt METAR EDDG 022250Z AUTO 27005KT CAVOK 09/08 Q1023 NOSIG
00:20
V
9 °C 10 km+ - 270° 270° 4 kt METAR EDDG 022220Z AUTO 27004KT CAVOK 09/08 Q1023 NOSIG

October 2, 2022

Time Code Weather Temp. Visibility Ceiling Wind METAR/SPECI
23:50
V
9 °C 10 km+ - 260° 260° 4 kt METAR EDDG 022150Z AUTO 26004KT CAVOK 09/08 Q1023 NOSIG
23:20
V
9 °C 10 km+ - 270° 270° 4 kt METAR EDDG 022120Z AUTO 27004KT CAVOK 09/08 Q1022 NOSIG
22:50
V
10 °C 10 km+ - 270° 270° 5 kt METAR EDDG 022050Z AUTO 27005KT CAVOK 10/08 Q1022 NOSIG
22:20
V
11 °C 10 km+ - 270° 270° 4 kt METAR EDDG 022020Z AUTO 27004KT CAVOK 11/08 Q1022 NOSIG
21:50
V
12 °C 10 km+ - 280° 280° 4 kt METAR EDDG 021950Z AUTO 28004KT CAVOK 12/09 Q1022 NOSIG
21:20
V
12 °C 10 km+ - 280° 280° 7 kt METAR EDDG 021920Z AUTO 28007KT CAVOK 12/09 Q1021 NOSIG
20:50
V
12 °C 10 km+ - 280° 280° 6 kt METAR EDDG 021850Z AUTO 28006KT CAVOK 12/09 Q1021 NOSIG
20:20
V
12 °C 10 km+ - 270° 270° 5 kt METAR EDDG 021820Z AUTO 27005KT CAVOK 12/08 Q1021 NOSIG
19:50
V
13 °C 10 km+ - 290° 290° 6 kt METAR EDDG 021750Z AUTO 29006KT CAVOK 13/09 Q1020 NOSIG
19:20
V
14 °C 10 km+ - 290° 290° 6 kt METAR EDDG 021720Z AUTO 29006KT 270V330 CAVOK 14/09 Q1019 NOSIG
18:50
V
15 °C 10 km+ - 290° 290° 6 kt METAR EDDG 021650Z AUTO 29006KT CAVOK 15/09 Q1019 NOSIG
18:20
V
16 °C 10 km+ - 290° 290° 9 kt METAR EDDG 021620Z AUTO 29009KT 270V330 CAVOK 16/09 Q1018 NOSIG
17:50
V
16 °C 10 km+ - 300° 300° 10 kt METAR EDDG 021550Z AUTO 30010KT 270V330 CAVOK 16/08 Q1018 NOSIG
17:20
V
17 °C 10 km+ - 310° 310° 7 kt METAR EDDG 021520Z AUTO 31007KT 280V340 9999 FEW045 17/09 Q1018 NOSIG
16:50
V
17 °C 10 km+ - 300° 300° 10 kt METAR EDDG 021450Z AUTO 30010KT 270V330 9999 FEW044 17/08 Q1017 BECMG 27005KT
16:20
V
18 °C 10 km+ - 290° 290° 12 kt METAR EDDG 021420Z AUTO 29012KT 9999 FEW041 18/08 Q1017 BECMG 27006KT
15:50
V
17 °C 10 km+ - 290° 290° 14 kt METAR EDDG 021350Z AUTO 29014KT 260V320 9999 FEW040 17/08 Q1017 NOSIG
15:20
V
18 °C 10 km+ - 270° 270° 12 kt METAR EDDG 021320Z AUTO 27012KT 9999 FEW038 18/10 Q1017 NOSIG
14:50
V
17 °C 10 km+ - 280° 280° 13 kt METAR EDDG 021250Z AUTO 28013KT 240V310 CAVOK 17/10 Q1016 NOSIG
14:20
V
18 °C 10 km+ - 270° 270° 13 kt METAR EDDG 021220Z AUTO 27013KT 9999 FEW031 18/11 Q1016 NOSIG
13:50
V
16 °C 10 km+ 3,300 ft 320° 320° 7 kt METAR EDDG 021150Z AUTO 32007KT 280V360 9999 -SHRA SCT027 BKN033 FEW///CB 16/11 Q1016 RESHRA NOSIG
13:20
V
17 °C 10 km+ - 280° 280° 11 kt METAR EDDG 021120Z AUTO 28011KT 260V320 9999 VCSH FEW031 FEW///CB 17/11 Q1016 NOSIG
12:50
V
17 °C 10 km+ 4,900 ft 280° 280° 12 kt METAR EDDG 021050Z AUTO 28012KT 260V320 9999 FEW022 BKN049 17/11 Q1016 NOSIG
12:20
M
17 °C 10 km+ 2,200 ft 270° 270° 12 kt METAR EDDG 021020Z AUTO 27012KT 240V320 9999 FEW017 BKN022 BKN031 17/12 Q1016 NOSIG
11:50
M
15 °C 10 km+ 1,800 ft 260° 260° 13 kt METAR EDDG 020950Z AUTO 26013KT 9999 BKN018 BKN032 BKN043 15/12 Q1016 NOSIG
11:20
M
16 °C 10 km+ 1,700 ft 260° 260° 12 kt METAR EDDG 020920Z AUTO 26012KT 9999 FEW011 BKN017 16/12 Q1015 NOSIG
10:50
M
15 °C 10 km+ 1,100 ft 250° 250° 9 kt METAR EDDG 020850Z AUTO 25009KT 220V280 9999 BKN011 BKN021 15/13 Q1015 BECMG SCT012
10:20
I
14 °C 10 km+ 900 ft 250° 250° 9 kt METAR EDDG 020820Z AUTO 25009KT 9999 BKN009 14/12 Q1015 BECMG SCT010
09:50
I
14 °C 10 km+ 800 ft 240° 240° 8 kt METAR EDDG 020750Z AUTO 24008KT 220V280 9999 BKN008 14/12 Q1015 BECMG SCT008
09:20
V
13 °C 10 km+ - 250° 250° 8 kt METAR EDDG 020720Z AUTO 25008KT 9999 SCT008 13/12 Q1015 TEMPO BKN008
08:50
V
13 °C 10 km+ - 240° 240° 7 kt METAR EDDG 020650Z AUTO 24007KT 9999 FEW009 13/12 Q1014 NOSIG
08:20
V
12 °C 10 km+ - 220° 220° 6 kt METAR EDDG 020620Z AUTO 22006KT CAVOK 12/11 Q1014 NOSIG
07:50
V
12 °C 10 km+ - 230° 230° 7 kt METAR EDDG 020550Z AUTO 23007KT 9999 -SHRA FEW021 FEW///TCU 12/11 Q1014 NOSIG
07:20
V
12 °C 10 km+ - 230° 230° 7 kt METAR EDDG 020520Z AUTO 23007KT 200V260 CAVOK 12/11 Q1014 NOSIG
06:50
V
12 °C 10 km+ - 220° 220° 7 kt METAR EDDG 020450Z AUTO 22007KT 200V260 CAVOK 12/11 Q1013 NOSIG
06:20
V
12 °C 10 km+ - 230° 230° 6 kt METAR EDDG 020420Z AUTO 23006KT CAVOK 12/10 Q1013 NOSIG
05:50
V
12 °C 10 km+ - 220° 220° 6 kt METAR EDDG 020350Z AUTO 22006KT CAVOK 12/10 Q1013 NOSIG
05:20
V
12 °C 10 km+ - 230° 230° 6 kt METAR EDDG 020320Z AUTO 23006KT 200V260 9999 -SHRA FEW///CB 12/11 Q1013 RESHRA NOSIG
04:50
V
12 °C 10 km+ - 210° 210° 6 kt METAR EDDG 020250Z AUTO 21006KT 180V240 9999 SHRA SCT048 FEW///CB 12/11 Q1013 BECMG NSW
04:20
V
12 °C 10 km+ - 220° 220° 4 kt METAR EDDG 020220Z AUTO 22004KT 9999 VCSH FEW///TCU 12/11 Q1013 TEMPO 25012KT SHRA BKN015TCU
03:50
V
12 °C 10 km+ - 220° 220° 6 kt METAR EDDG 020150Z AUTO 22006KT 190V250 9999 -SHRA FEW013 FEW///TCU 12/11 Q1013 TEMPO 24013KT SHRA BKN015TCU
03:20
V
12 °C 10 km+ - 210° 210° 6 kt METAR EDDG 020120Z AUTO 21006KT 170V240 CAVOK 12/10 Q1013 TEMPO 25013KT SHRA BKN015TCU
02:50
V
12 °C 10 km+ - 210° 210° 7 kt METAR EDDG 020050Z AUTO 21007KT CAVOK 12/10 Q1013 TEMPO 24013KT SHRA SCT015TCU
02:20
V
12 °C 10 km+ - 210° 210° 6 kt METAR EDDG 020020Z AUTO 21006KT CAVOK 12/10 Q1013 NOSIG
01:50
V
12 °C 10 km+ - 220° 220° 7 kt METAR EDDG 012350Z AUTO 22007KT 180V240 CAVOK 12/10 Q1013 NOSIG
01:20
V
12 °C 10 km+ - 210° 210° 8 kt METAR EDDG 012320Z AUTO 21008KT CAVOK 12/10 Q1012 NOSIG
00:50
V
12 °C 10 km+ - 200° 200° 6 kt METAR EDDG 012250Z AUTO 20006KT 170V240 9999 -SHRA FEW///CB 12/10 Q1012 NOSIG
00:20
V
11 °C 10 km+ - 200° 200° 5 kt METAR EDDG 012220Z AUTO 20005KT 160V230 CAVOK 11/10 Q1012 NOSIG

October 1, 2022

Time Code Weather Temp. Visibility Ceiling Wind METAR/SPECI
23:50
V
12 °C 10 km+ - 220° 220° 5 kt METAR EDDG 012150Z AUTO 22005KT CAVOK 12/10 Q1012 NOSIG
23:20
V
12 °C 10 km+ - 230° 230° 8 kt METAR EDDG 012120Z AUTO 23008KT 9999 -SHRA FEW038 FEW///TCU 12/10 Q1012 RESHRA NOSIG
22:50
V
13 °C 10 km+ - 240° 240° 11 kt METAR EDDG 012050Z AUTO 24011KT 210V270 9999 SHRA FEW035 FEW///CB 13/10 Q1011 BECMG NSW
22:20
V
13 °C 10 km+ - 230° 230° 6 kt METAR EDDG 012020Z AUTO 23006KT 9999 -SHRA FEW037 FEW///CB 13/10 Q1011 TEMPO 25012KT SHRA BKN015TCU
21:50
V
13 °C 10 km+ - 220° 220° 5 kt METAR EDDG 011950Z AUTO 22005KT 9999 VCSH FEW044 FEW///CB 13/10 Q1011 TEMPO 25010KT SHRA BKN015TCU
21:20
V
12 °C 10 km+ - 220° 220° 5 kt METAR EDDG 011920Z AUTO 22005KT CAVOK 12/10 Q1010 TEMPO 27012KT SHRA BKN015CB
20:50
V
12 °C 10 km+ - 240° 240° 4 kt METAR EDDG 011850Z AUTO 24004KT 200V260 CAVOK 12/10 Q1010 NOSIG
20:20
V
13 °C 10 km+ - 260° 260° 7 kt METAR EDDG 011820Z AUTO 26007KT 220V290 9999 FEW028 13/10 Q1009 RESHRA NOSIG
19:50
V
13 °C 10 km+ 4,100 ft 310° 310° 4 kt METAR EDDG 011750Z AUTO 31004KT 270V350 9999 -SHRA SCT031 BKN041 FEW///CB 13/10 Q1009 RESHRA NOSIG
19:20
V
14 °C 10 km+ - 270° 270° 7 kt METAR EDDG 011720Z AUTO 27007KT 9999 FEW032 SCT046 14/10 Q1008 NOSIG
18:50
V
15 °C 10 km+ - 280° 280° 13 - 23 kt METAR EDDG 011650Z AUTO 28013G23KT 240V320 9999 -SHRA FEW033 FEW///CB 15/09 Q1008 NOSIG
18:20
V
15 °C 10 km+ - 260° 260° 11 kt METAR EDDG 011620Z AUTO 26011KT 9999 FEW043 15/10 Q1007 TEMPO SHRA BKN030CB
17:50
V
15 °C 10 km+ - 270° 270° 10 kt METAR EDDG 011550Z AUTO 27010KT 240V300 9999 VCSH SCT042 FEW///TCU 15/10 Q1006 RESHRA TEMPO SHRA BKN030CB
17:20
V
15 °C 10 km+ 4,300 ft 280° 280° 6 kt METAR EDDG 011520Z AUTO 28006KT 9999 SHRA SCT032 BKN043 FEW///CB 15/12 Q1006 BECMG NSW
16:50
V
15 °C 10 km+ - 280° 280° 6 kt METAR EDDG 011450Z AUTO 28006KT 250V340 9999 FEW036 SCT046 15/12 Q1006 NOSIG
Older data

We and third parties follow your internet behavior on our website with cookies. If you continue, we assume you agree with our cookie policy. Learn more